sensor_id;sensor_type;location;lat;lon;timestamp;temperature;humidity
15072;DHT22;7635;56.696;13.002;2023-01-24T00:01:48;1.20;99.90
15072;DHT22;7635;56.696;13.002;2023-01-24T00:04:15;1.20;99.90
15072;DHT22;7635;56.696;13.002;2023-01-24T00:06:41;1.30;99.90
15072;DHT22;7635;56.696;13.002;2023-01-24T00:09:08;1.20;99.90
15072;DHT22;7635;56.696;13.002;2023-01-24T00:11:34;1.30;99.90
15072;DHT22;7635;56.696;13.002;2023-01-24T00:14:03;1.20;99.90
15072;DHT22;7635;56.696;13.002;2023-01-24T00:16:29;1.20;99.90
15072;DHT22;7635;56.696;13.002;2023-01-24T00:18:56;1.20;99.90
15072;DHT22;7635;56.696;13.002;2023-01-24T00:21:24;1.20;99.90
15072;DHT22;7635;56.696;13.002;2023-01-24T00:23:52;1.20;99.90
15072;DHT22;7635;56.696;13.002;2023-01-24T00:26:20;1.20;99.90
15072;DHT22;7635;56.696;13.002;2023-01-24T00:28:47;1.20;99.90
15072;DHT22;7635;56.696;13.002;2023-01-24T00:31:16;1.30;99.90
15072;DHT22;7635;56.696;13.002;2023-01-24T00:33:42;1.30;99.90
15072;DHT22;7635;56.696;13.002;2023-01-24T00:36:09;1.30;99.90
15072;DHT22;7635;56.696;13.002;2023-01-24T00:38:36;1.30;99.90
15072;DHT22;7635;56.696;13.002;2023-01-24T00:41:04;1.30;99.90
15072;DHT22;7635;56.696;13.002;2023-01-24T00:43:30;1.30;99.90
15072;DHT22;7635;56.696;13.002;2023-01-24T00:45:57;1.30;99.90
15072;DHT22;7635;56.696;13.002;2023-01-24T00:48:25;1.30;99.90
15072;DHT22;7635;56.696;13.002;2023-01-24T00:50:52;1.30;99.90
15072;DHT22;7635;56.696;13.002;2023-01-24T00:53:19;1.30;99.90
15072;DHT22;7635;56.696;13.002;2023-01-24T00:55:47;1.30;99.90
15072;DHT22;7635;56.696;13.002;2023-01-24T00:58:14;1.30;99.90
15072;DHT22;7635;56.696;13.002;2023-01-24T01:00:41;1.30;99.90
15072;DHT22;7635;56.696;13.002;2023-01-24T01:03:11;1.30;99.90
15072;DHT22;7635;56.696;13.002;2023-01-24T01:05:40;1.30;99.90
15072;DHT22;7635;56.696;13.002;2023-01-24T01:08:07;1.30;99.90
15072;DHT22;7635;56.696;13.002;2023-01-24T01:10:34;1.30;99.90
15072;DHT22;7635;56.696;13.002;2023-01-24T01:13:00;1.30;99.90
15072;DHT22;7635;56.696;13.002;2023-01-24T01:15:28;1.30;99.90
15072;DHT22;7635;56.696;13.002;2023-01-24T01:17:56;1.30;99.90
15072;DHT22;7635;56.696;13.002;2023-01-24T01:20:22;1.40;99.90
15072;DHT22;7635;56.696;13.002;2023-01-24T01:22:50;1.40;99.90
15072;DHT22;7635;56.696;13.002;2023-01-24T01:25:17;1.40;99.90
15072;DHT22;7635;56.696;13.002;2023-01-24T01:27:44;1.40;99.90
15072;DHT22;7635;56.696;13.002;2023-01-24T01:30:11;1.40;99.90
15072;DHT22;7635;56.696;13.002;2023-01-24T01:32:38;1.40;99.90
15072;DHT22;7635;56.696;13.002;2023-01-24T01:35:05;1.40;99.90
15072;DHT22;7635;56.696;13.002;2023-01-24T01:37:32;1.40;99.90
15072;DHT22;7635;56.696;13.002;2023-01-24T01:40:00;1.40;99.90
15072;DHT22;7635;56.696;13.002;2023-01-24T01:42:39;1.40;99.90
15072;DHT22;7635;56.696;13.002;2023-01-24T01:45:31;1.40;99.90
15072;DHT22;7635;56.696;13.002;2023-01-24T01:48:00;1.40;99.90
15072;DHT22;7635;56.696;13.002;2023-01-24T01:50:30;1.40;99.90
15072;DHT22;7635;56.696;13.002;2023-01-24T01:52:58;1.40;99.90
15072;DHT22;7635;56.696;13.002;2023-01-24T01:55:28;1.40;99.90
15072;DHT22;7635;56.696;13.002;2023-01-24T01:57:59;1.40;99.90
15072;DHT22;7635;56.696;13.002;2023-01-24T02:00:27;1.50;99.90
15072;DHT22;7635;56.696;13.002;2023-01-24T02:02:57;1.50;99.90
15072;DHT22;7635;56.696;13.002;2023-01-24T02:05:45;1.50;99.90
15072;DHT22;7635;56.696;13.002;2023-01-24T02:08:15;1.50;99.90
15072;DHT22;7635;56.696;13.002;2023-01-24T02:10:45;1.50;99.90
15072;DHT22;7635;56.696;13.002;2023-01-24T02:13:29;1.50;99.90
15072;DHT22;7635;56.696;13.002;2023-01-24T02:15:57;1.50;99.90
15072;DHT22;7635;56.696;13.002;2023-01-24T02:18:29;1.60;99.90
15072;DHT22;7635;56.696;13.002;2023-01-24T02:20:56;1.50;99.90
15072;DHT22;7635;56.696;13.002;2023-01-24T02:23:29;1.60;99.90
15072;DHT22;7635;56.696;13.002;2023-01-24T02:26:06;1.60;99.90
15072;DHT22;7635;56.696;13.002;2023-01-24T02:28:33;1.60;99.90
15072;DHT22;7635;56.696;13.002;2023-01-24T02:31:01;1.60;99.90
15072;DHT22;7635;56.696;13.002;2023-01-24T02:33:29;1.60;99.90
15072;DHT22;7635;56.696;13.002;2023-01-24T02:36:13;1.60;99.90
15072;DHT22;7635;56.696;13.002;2023-01-24T02:38:44;1.60;99.90
15072;DHT22;7635;56.696;13.002;2023-01-24T02:41:14;1.60;99.90
15072;DHT22;7635;56.696;13.002;2023-01-24T02:43:46;1.60;99.90
15072;DHT22;7635;56.696;13.002;2023-01-24T02:46:14;1.60;99.90
15072;DHT22;7635;56.696;13.002;2023-01-24T02:48:40;1.60;99.90
15072;DHT22;7635;56.696;13.002;2023-01-24T02:51:07;1.60;99.90
15072;DHT22;7635;56.696;13.002;2023-01-24T02:53:51;1.60;99.90
15072;DHT22;7635;56.696;13.002;2023-01-24T02:56:19;1.60;99.90
15072;DHT22;7635;56.696;13.002;2023-01-24T02:59:09;1.60;99.90
15072;DHT22;7635;56.696;13.002;2023-01-24T03:01:36;1.60;99.90
15072;DHT22;7635;56.696;13.002;2023-01-24T03:04:02;1.60;99.90
15072;DHT22;7635;56.696;13.002;2023-01-24T03:06:29;1.60;99.90
15072;DHT22;7635;56.696;13.002;2023-01-24T03:08:56;1.60;99.90
15072;DHT22;7635;56.696;13.002;2023-01-24T03:11:24;1.60;99.90
15072;DHT22;7635;56.696;13.002;2023-01-24T03:13:50;1.60;99.90
15072;DHT22;7635;56.696;13.002;2023-01-24T03:16:34;1.60;99.90
15072;DHT22;7635;56.696;13.002;2023-01-24T03:19:19;1.70;99.90
15072;DHT22;7635;56.696;13.002;2023-01-24T03:22:03;1.60;99.90
15072;DHT22;7635;56.696;13.002;2023-01-24T03:24:47;1.60;99.90
15072;DHT22;7635;56.696;13.002;2023-01-24T03:27:33;1.60;99.90
15072;DHT22;7635;56.696;13.002;2023-01-24T03:30:17;1.60;99.90
15072;DHT22;7635;56.696;13.002;2023-01-24T03:33:02;1.60;99.90
15072;DHT22;7635;56.696;13.002;2023-01-24T03:35:48;1.60;99.90
15072;DHT22;7635;56.696;13.002;2023-01-24T03:38:20;1.60;99.90
15072;DHT22;7635;56.696;13.002;2023-01-24T03:41:05;1.60;99.90
15072;DHT22;7635;56.696;13.002;2023-01-24T03:43:33;1.60;99.90
15072;DHT22;7635;56.696;13.002;2023-01-24T03:46:00;1.60;99.90
15072;DHT22;7635;56.696;13.002;2023-01-24T03:48:26;1.60;99.90
15072;DHT22;7635;56.696;13.002;2023-01-24T03:51:00;1.60;99.90
15072;DHT22;7635;56.696;13.002;2023-01-24T03:53:44;1.70;99.90
15072;DHT22;7635;56.696;13.002;2023-01-24T03:56:11;1.70;99.90
15072;DHT22;7635;56.696;13.002;2023-01-24T03:58:39;1.70;99.90
15072;DHT22;7635;56.696;13.002;2023-01-24T04:01:06;1.70;99.90
15072;DHT22;7635;56.696;13.002;2023-01-24T04:03:32;1.70;99.90
15072;DHT22;7635;56.696;13.002;2023-01-24T04:05:59;1.70;99.90
15072;DHT22;7635;56.696;13.002;2023-01-24T04:08:26;1.70;99.90
15072;DHT22;7635;56.696;13.002;2023-01-24T04:10:55;1.70;99.90
15072;DHT22;7635;56.696;13.002;2023-01-24T04:13:22;1.70;99.90
15072;DHT22;7635;56.696;13.002;2023-01-24T04:15:50;1.70;99.90
15072;DHT22;7635;56.696;13.002;2023-01-24T04:18:17;1.70;99.90
15072;DHT22;7635;56.696;13.002;2023-01-24T04:20:44;1.70;99.90
15072;DHT22;7635;56.696;13.002;2023-01-24T04:23:11;1.70;99.90
15072;DHT22;7635;56.696;13.002;2023-01-24T04:25:38;1.70;99.90
15072;DHT22;7635;56.696;13.002;2023-01-24T04:28:05;1.80;99.90
15072;DHT22;7635;56.696;13.002;2023-01-24T04:30:31;1.80;99.90
15072;DHT22;7635;56.696;13.002;2023-01-24T04:33:00;1.80;99.90
15072;DHT22;7635;56.696;13.002;2023-01-24T04:35:28;1.80;99.90
15072;DHT22;7635;56.696;13.002;2023-01-24T04:37:58;1.80;99.90
15072;DHT22;7635;56.696;13.002;2023-01-24T04:40:25;1.80;99.90
15072;DHT22;7635;56.696;13.002;2023-01-24T04:42:54;1.80;99.90
15072;DHT22;7635;56.696;13.002;2023-01-24T04:45:21;1.80;99.90
15072;DHT22;7635;56.696;13.002;2023-01-24T04:47:48;1.80;99.90
15072;DHT22;7635;56.696;13.002;2023-01-24T04:50:16;1.80;99.90
15072;DHT22;7635;56.696;13.002;2023-01-24T04:52:43;1.80;99.90
15072;DHT22;7635;56.696;13.002;2023-01-24T04:55:09;1.80;99.90
15072;DHT22;7635;56.696;13.002;2023-01-24T04:57:36;1.70;99.90
15072;DHT22;7635;56.696;13.002;2023-01-24T05:00:04;1.70;99.90
15072;DHT22;7635;56.696;13.002;2023-01-24T05:02:30;1.80;99.90
15072;DHT22;7635;56.696;13.002;2023-01-24T05:04:58;1.80;99.90
15072;DHT22;7635;56.696;13.002;2023-01-24T05:07:25;1.70;99.90
15072;DHT22;7635;56.696;13.002;2023-01-24T05:09:52;1.70;99.90
15072;DHT22;7635;56.696;13.002;2023-01-24T05:12:19;1.80;99.90
15072;DHT22;7635;56.696;13.002;2023-01-24T05:14:45;1.70;99.90
15072;DHT22;7635;56.696;13.002;2023-01-24T05:17:12;1.70;99.90
15072;DHT22;7635;56.696;13.002;2023-01-24T05:19:39;1.70;99.90
15072;DHT22;7635;56.696;13.002;2023-01-24T05:22:05;1.70;99.90
15072;DHT22;7635;56.696;13.002;2023-01-24T05:24:33;1.70;99.90
15072;DHT22;7635;56.696;13.002;2023-01-24T05:27:00;1.70;99.90
15072;DHT22;7635;56.696;13.002;2023-01-24T05:29:27;1.70;99.90
15072;DHT22;7635;56.696;13.002;2023-01-24T05:31:54;1.70;99.90
15072;DHT22;7635;56.696;13.002;2023-01-24T05:34:20;1.70;99.90
15072;DHT22;7635;56.696;13.002;2023-01-24T05:36:47;1.70;99.90
15072;DHT22;7635;56.696;13.002;2023-01-24T05:39:14;1.70;99.90
15072;DHT22;7635;56.696;13.002;2023-01-24T05:41:42;1.70;99.90
15072;DHT22;7635;56.696;13.002;2023-01-24T05:44:09;1.70;99.90
15072;DHT22;7635;56.696;13.002;2023-01-24T05:46:35;1.60;99.90
15072;DHT22;7635;56.696;13.002;2023-01-24T05:49:02;1.60;99.90
15072;DHT22;7635;56.696;13.002;2023-01-24T05:51:29;1.60;99.90
15072;DHT22;7635;56.696;13.002;2023-01-24T05:53:55;1.60;99.90
15072;DHT22;7635;56.696;13.002;2023-01-24T05:56:22;1.60;99.90
15072;DHT22;7635;56.696;13.002;2023-01-24T05:58:50;1.60;99.90
15072;DHT22;7635;56.696;13.002;2023-01-24T06:01:18;1.60;99.90
15072;DHT22;7635;56.696;13.002;2023-01-24T06:03:46;1.60;99.90
15072;DHT22;7635;56.696;13.002;2023-01-24T06:06:15;1.60;99.90
15072;DHT22;7635;56.696;13.002;2023-01-24T06:08:42;1.50;99.90
15072;DHT22;7635;56.696;13.002;2023-01-24T06:11:13;1.50;99.90
15072;DHT22;7635;56.696;13.002;2023-01-24T06:13:40;1.60;99.90
15072;DHT22;7635;56.696;13.002;2023-01-24T06:16:10;1.60;99.90
15072;DHT22;7635;56.696;13.002;2023-01-24T06:18:38;1.60;99.90
15072;DHT22;7635;56.696;13.002;2023-01-24T06:21:07;1.60;99.90
15072;DHT22;7635;56.696;13.002;2023-01-24T06:23:34;1.60;99.90
15072;DHT22;7635;56.696;13.002;2023-01-24T06:26:01;1.60;99.90
15072;DHT22;7635;56.696;13.002;2023-01-24T06:28:29;1.60;99.90
15072;DHT22;7635;56.696;13.002;2023-01-24T06:31:02;1.60;99.90
15072;DHT22;7635;56.696;13.002;2023-01-24T06:33:48;1.60;99.90
15072;DHT22;7635;56.696;13.002;2023-01-24T06:36:34;1.60;99.90
15072;DHT22;7635;56.696;13.002;2023-01-24T06:39:06;1.60;99.90
15072;DHT22;7635;56.696;13.002;2023-01-24T06:41:35;1.60;99.90
15072;DHT22;7635;56.696;13.002;2023-01-24T06:44:02;1.60;99.90
15072;DHT22;7635;56.696;13.002;2023-01-24T06:46:28;1.60;99.90
15072;DHT22;7635;56.696;13.002;2023-01-24T06:48:56;1.60;99.90
15072;DHT22;7635;56.696;13.002;2023-01-24T06:51:23;1.60;99.90
15072;DHT22;7635;56.696;13.002;2023-01-24T06:53:50;1.60;99.90
15072;DHT22;7635;56.696;13.002;2023-01-24T06:56:16;1.60;99.90
15072;DHT22;7635;56.696;13.002;2023-01-24T06:58:43;1.60;99.90
15072;DHT22;7635;56.696;13.002;2023-01-24T07:01:10;1.60;99.90
15072;DHT22;7635;56.696;13.002;2023-01-24T07:03:36;1.60;99.90
15072;DHT22;7635;56.696;13.002;2023-01-24T07:06:05;1.70;99.90
15072;DHT22;7635;56.696;13.002;2023-01-24T07:08:31;1.70;99.90
15072;DHT22;7635;56.696;13.002;2023-01-24T07:10:58;1.70;99.90
15072;DHT22;7635;56.696;13.002;2023-01-24T07:13:25;1.70;99.90
15072;DHT22;7635;56.696;13.002;2023-01-24T07:15:52;1.70;99.90
15072;DHT22;7635;56.696;13.002;2023-01-24T07:18:19;1.70;99.90
15072;DHT22;7635;56.696;13.002;2023-01-24T07:20:46;1.70;99.90
15072;DHT22;7635;56.696;13.002;2023-01-24T07:23:20;1.70;99.90
15072;DHT22;7635;56.696;13.002;2023-01-24T07:25:50;1.70;99.90
15072;DHT22;7635;56.696;13.002;2023-01-24T07:28:18;1.70;99.90
15072;DHT22;7635;56.696;13.002;2023-01-24T07:30:44;1.80;99.90
15072;DHT22;7635;56.696;13.002;2023-01-24T07:33:12;1.70;99.90
15072;DHT22;7635;56.696;13.002;2023-01-24T07:35:42;1.80;99.90
15072;DHT22;7635;56.696;13.002;2023-01-24T07:38:09;1.80;99.90
15072;DHT22;7635;56.696;13.002;2023-01-24T07:40:38;1.80;99.90
15072;DHT22;7635;56.696;13.002;2023-01-24T07:43:05;1.80;99.90
15072;DHT22;7635;56.696;13.002;2023-01-24T07:45:32;1.80;99.90
15072;DHT22;7635;56.696;13.002;2023-01-24T07:48:00;1.80;99.90
15072;DHT22;7635;56.696;13.002;2023-01-24T07:50:27;1.90;99.90
15072;DHT22;7635;56.696;13.002;2023-01-24T07:52:55;1.90;99.90
15072;DHT22;7635;56.696;13.002;2023-01-24T07:55:23;1.90;99.90
15072;DHT22;7635;56.696;13.002;2023-01-24T07:57:51;1.90;99.90
15072;DHT22;7635;56.696;13.002;2023-01-24T08:00:19;2.00;99.90
15072;DHT22;7635;56.696;13.002;2023-01-24T08:02:48;2.00;99.90
15072;DHT22;7635;56.696;13.002;2023-01-24T08:05:15;2.00;99.90
15072;DHT22;7635;56.696;13.002;2023-01-24T08:07:42;2.00;99.90
15072;DHT22;7635;56.696;13.002;2023-01-24T08:10:09;2.00;99.90
15072;DHT22;7635;56.696;13.002;2023-01-24T08:12:36;2.00;99.90
15072;DHT22;7635;56.696;13.002;2023-01-24T08:15:05;2.10;99.90
15072;DHT22;7635;56.696;13.002;2023-01-24T08:17:35;2.10;99.90
15072;DHT22;7635;56.696;13.002;2023-01-24T08:20:03;2.10;99.90
15072;DHT22;7635;56.696;13.002;2023-01-24T08:22:31;2.10;99.90
15072;DHT22;7635;56.696;13.002;2023-01-24T08:24:58;2.10;99.90
15072;DHT22;7635;56.696;13.002;2023-01-24T08:27:24;2.10;99.90
15072;DHT22;7635;56.696;13.002;2023-01-24T08:29:51;2.10;99.90
15072;DHT22;7635;56.696;13.002;2023-01-24T08:32:19;2.20;99.90
15072;DHT22;7635;56.696;13.002;2023-01-24T08:34:46;2.20;99.90
15072;DHT22;7635;56.696;13.002;2023-01-24T08:37:12;2.20;99.90
15072;DHT22;7635;56.696;13.002;2023-01-24T08:39:39;2.20;99.90
15072;DHT22;7635;56.696;13.002;2023-01-24T08:42:06;2.20;99.90
15072;DHT22;7635;56.696;13.002;2023-01-24T08:44:33;2.20;99.90
15072;DHT22;7635;56.696;13.002;2023-01-24T08:46:59;2.20;99.90
15072;DHT22;7635;56.696;13.002;2023-01-24T08:49:27;2.20;99.90
15072;DHT22;7635;56.696;13.002;2023-01-24T08:51:54;2.30;99.90
15072;DHT22;7635;56.696;13.002;2023-01-24T08:54:24;2.30;99.90
15072;DHT22;7635;56.696;13.002;2023-01-24T08:56:51;2.30;99.90
15072;DHT22;7635;56.696;13.002;2023-01-24T08:59:17;2.40;99.90
15072;DHT22;7635;56.696;13.002;2023-01-24T09:01:44;2.40;99.90
15072;DHT22;7635;56.696;13.002;2023-01-24T09:04:11;2.40;99.90
15072;DHT22;7635;56.696;13.002;2023-01-24T09:06:39;2.50;99.90
15072;DHT22;7635;56.696;13.002;2023-01-24T09:09:06;2.40;99.90
15072;DHT22;7635;56.696;13.002;2023-01-24T09:11:32;2.50;99.90
15072;DHT22;7635;56.696;13.002;2023-01-24T09:13:59;2.50;99.90
15072;DHT22;7635;56.696;13.002;2023-01-24T09:16:26;2.50;99.90
15072;DHT22;7635;56.696;13.002;2023-01-24T09:18:53;2.50;99.90
15072;DHT22;7635;56.696;13.002;2023-01-24T09:21:20;2.50;99.90
15072;DHT22;7635;56.696;13.002;2023-01-24T09:23:48;2.50;99.90
15072;DHT22;7635;56.696;13.002;2023-01-24T09:26:15;2.50;99.90
15072;DHT22;7635;56.696;13.002;2023-01-24T09:28:41;2.50;99.90
15072;DHT22;7635;56.696;13.002;2023-01-24T09:31:09;2.50;99.90
15072;DHT22;7635;56.696;13.002;2023-01-24T09:33:36;2.50;99.90
15072;DHT22;7635;56.696;13.002;2023-01-24T09:36:03;2.60;99.90
15072;DHT22;7635;56.696;13.002;2023-01-24T09:38:32;2.60;99.90
15072;DHT22;7635;56.696;13.002;2023-01-24T09:41:07;2.60;99.90
15072;DHT22;7635;56.696;13.002;2023-01-24T09:43:43;2.60;99.90
15072;DHT22;7635;56.696;13.002;2023-01-24T09:46:21;2.70;99.90
15072;DHT22;7635;56.696;13.002;2023-01-24T09:48:54;2.70;99.90
15072;DHT22;7635;56.696;13.002;2023-01-24T09:51:28;2.70;99.90
15072;DHT22;7635;56.696;13.002;2023-01-24T09:53:57;2.70;99.90
15072;DHT22;7635;56.696;13.002;2023-01-24T09:56:32;2.70;99.90
15072;DHT22;7635;56.696;13.002;2023-01-24T09:59:09;2.70;99.90
15072;DHT22;7635;56.696;13.002;2023-01-24T10:01:38;2.70;99.90
15072;DHT22;7635;56.696;13.002;2023-01-24T10:04:16;2.80;99.90
15072;DHT22;7635;56.696;13.002;2023-01-24T10:06:56;2.80;99.90
15072;DHT22;7635;56.696;13.002;2023-01-24T10:09:32;2.80;99.90
15072;DHT22;7635;56.696;13.002;2023-01-24T10:12:12;2.80;99.90
15072;DHT22;7635;56.696;13.002;2023-01-24T10:14:52;2.80;99.90
15072;DHT22;7635;56.696;13.002;2023-01-24T10:17:53;2.80;99.90
15072;DHT22;7635;56.696;13.002;2023-01-24T10:20:36;2.80;99.90
15072;DHT22;7635;56.696;13.002;2023-01-24T10:23:09;2.90;99.90
15072;DHT22;7635;56.696;13.002;2023-01-24T10:25:50;2.80;99.90
15072;DHT22;7635;56.696;13.002;2023-01-24T10:28:23;2.90;99.90
15072;DHT22;7635;56.696;13.002;2023-01-24T10:30:56;2.90;99.90
15072;DHT22;7635;56.696;13.002;2023-01-24T10:33:27;2.90;99.90
15072;DHT22;7635;56.696;13.002;2023-01-24T10:35:58;2.90;99.90
15072;DHT22;7635;56.696;13.002;2023-01-24T10:38:26;2.90;99.90
15072;DHT22;7635;56.696;13.002;2023-01-24T10:40:55;2.90;99.90
15072;DHT22;7635;56.696;13.002;2023-01-24T10:43:25;2.90;99.90
15072;DHT22;7635;56.696;13.002;2023-01-24T10:46:04;2.90;99.90
15072;DHT22;7635;56.696;13.002;2023-01-24T10:48:39;2.90;99.90
15072;DHT22;7635;56.696;13.002;2023-01-24T10:51:14;2.90;99.90
15072;DHT22;7635;56.696;13.002;2023-01-24T10:53:42;2.90;99.90
15072;DHT22;7635;56.696;13.002;2023-01-24T10:56:09;2.90;99.90
15072;DHT22;7635;56.696;13.002;2023-01-24T10:58:39;2.90;99.90
15072;DHT22;7635;56.696;13.002;2023-01-24T11:01:08;2.90;99.90
15072;DHT22;7635;56.696;13.002;2023-01-24T11:03:39;3.00;99.90
15072;DHT22;7635;56.696;13.002;2023-01-24T11:06:24;3.00;99.90
15072;DHT22;7635;56.696;13.002;2023-01-24T11:08:54;3.00;99.90
15072;DHT22;7635;56.696;13.002;2023-01-24T11:11:25;3.00;99.90
15072;DHT22;7635;56.696;13.002;2023-01-24T11:13:57;3.00;99.90
15072;DHT22;7635;56.696;13.002;2023-01-24T11:16:27;3.00;99.90
15072;DHT22;7635;56.696;13.002;2023-01-24T11:18:59;3.00;99.90
15072;DHT22;7635;56.696;13.002;2023-01-24T11:21:27;3.00;99.90
15072;DHT22;7635;56.696;13.002;2023-01-24T11:24:07;3.00;99.90
15072;DHT22;7635;56.696;13.002;2023-01-24T11:26:40;3.00;99.90
15072;DHT22;7635;56.696;13.002;2023-01-24T11:29:18;3.00;99.90
15072;DHT22;7635;56.696;13.002;2023-01-24T11:31:48;3.00;99.90
15072;DHT22;7635;56.696;13.002;2023-01-24T11:34:34;3.00;99.90
15072;DHT22;7635;56.696;13.002;2023-01-24T11:37:07;2.90;99.90
15072;DHT22;7635;56.696;13.002;2023-01-24T11:39:41;3.00;99.90
15072;DHT22;7635;56.696;13.002;2023-01-24T11:42:17;3.00;99.90
15072;DHT22;7635;56.696;13.002;2023-01-24T11:44:58;3.00;99.90
15072;DHT22;7635;56.696;13.002;2023-01-24T11:47:32;3.00;99.90
15072;DHT22;7635;56.696;13.002;2023-01-24T11:50:17;3.00;99.90
15072;DHT22;7635;56.696;13.002;2023-01-24T11:52:56;3.00;99.90
15072;DHT22;7635;56.696;13.002;2023-01-24T11:55:37;3.00;99.90
15072;DHT22;7635;56.696;13.002;2023-01-24T11:58:18;3.00;99.90
15072;DHT22;7635;56.696;13.002;2023-01-24T12:00:58;3.00;99.90
15072;DHT22;7635;56.696;13.002;2023-01-24T12:03:44;3.00;99.90
15072;DHT22;7635;56.696;13.002;2023-01-24T12:06:22;3.00;99.90
15072;DHT22;7635;56.696;13.002;2023-01-24T12:09:05;2.90;99.90
15072;DHT22;7635;56.696;13.002;2023-01-24T12:11:39;3.00;99.90
15072;DHT22;7635;56.696;13.002;2023-01-24T12:14:33;2.90;99.90
15072;DHT22;7635;56.696;13.002;2023-01-24T12:17:07;2.90;99.90
15072;DHT22;7635;56.696;13.002;2023-01-24T12:19:50;2.90;99.90
15072;DHT22;7635;56.696;13.002;2023-01-24T12:22:22;2.90;99.90
15072;DHT22;7635;56.696;13.002;2023-01-24T12:24:54;2.90;99.90
15072;DHT22;7635;56.696;13.002;2023-01-24T12:27:24;2.90;99.90
15072;DHT22;7635;56.696;13.002;2023-01-24T12:29:57;2.90;99.90
15072;DHT22;7635;56.696;13.002;2023-01-24T12:32:30;2.90;99.90
15072;DHT22;7635;56.696;13.002;2023-01-24T12:35:03;2.80;99.90
15072;DHT22;7635;56.696;13.002;2023-01-24T12:37:36;2.90;99.90
15072;DHT22;7635;56.696;13.002;2023-01-24T12:40:15;2.90;99.90
15072;DHT22;7635;56.696;13.002;2023-01-24T12:42:51;2.90;99.90
15072;DHT22;7635;56.696;13.002;2023-01-24T12:45:23;2.90;99.90
15072;DHT22;7635;56.696;13.002;2023-01-24T12:47:57;2.90;99.90
15072;DHT22;7635;56.696;13.002;2023-01-24T12:50:30;2.90;99.90
15072;DHT22;7635;56.696;13.002;2023-01-24T12:53:05;2.90;99.90
15072;DHT22;7635;56.696;13.002;2023-01-24T12:55:39;3.00;99.90
15072;DHT22;7635;56.696;13.002;2023-01-24T12:58:15;3.00;99.90
15072;DHT22;7635;56.696;13.002;2023-01-24T13:00:53;3.00;99.90
15072;DHT22;7635;56.696;13.002;2023-01-24T13:03:43;3.00;99.90
15072;DHT22;7635;56.696;13.002;2023-01-24T13:06:19;3.00;99.90
15072;DHT22;7635;56.696;13.002;2023-01-24T13:08:58;3.00;99.90
15072;DHT22;7635;56.696;13.002;2023-01-24T13:11:27;3.00;99.90
15072;DHT22;7635;56.696;13.002;2023-01-24T13:14:03;3.00;99.90
15072;DHT22;7635;56.696;13.002;2023-01-24T13:19:58;3.00;99.90
15072;DHT22;7635;56.696;13.002;2023-01-24T13:22:46;3.00;99.90
15072;DHT22;7635;56.696;13.002;2023-01-24T13:25:35;3.00;99.90
15072;DHT22;7635;56.696;13.002;2023-01-24T13:28:10;3.00;99.90
15072;DHT22;7635;56.696;13.002;2023-01-24T13:30:47;3.00;99.90
15072;DHT22;7635;56.696;13.002;2023-01-24T13:33:18;3.00;99.90
15072;DHT22;7635;56.696;13.002;2023-01-24T13:35:48;3.00;99.90
15072;DHT22;7635;56.696;13.002;2023-01-24T13:38:22;3.00;99.90
15072;DHT22;7635;56.696;13.002;2023-01-24T13:41:00;3.00;99.90
15072;DHT22;7635;56.696;13.002;2023-01-24T13:43:54;3.00;99.90
15072;DHT22;7635;56.696;13.002;2023-01-24T13:49:32;3.00;99.90
15072;DHT22;7635;56.696;13.002;2023-01-24T13:52:02;3.00;99.90
15072;DHT22;7635;56.696;13.002;2023-01-24T13:54:38;3.00;99.90
15072;DHT22;7635;56.696;13.002;2023-01-24T13:57:23;3.00;99.90
15072;DHT22;7635;56.696;13.002;2023-01-24T14:03:01;3.00;99.90
15072;DHT22;7635;56.696;13.002;2023-01-24T14:05:48;3.00;99.90
15072;DHT22;7635;56.696;13.002;2023-01-24T14:08:40;3.00;99.90
15072;DHT22;7635;56.696;13.002;2023-01-24T14:11:37;3.00;99.90
15072;DHT22;7635;56.696;13.002;2023-01-24T14:14:34;3.00;99.90
15072;DHT22;7635;56.696;13.002;2023-01-24T14:19:46;3.00;99.90
15072;DHT22;7635;56.696;13.002;2023-01-24T14:22:21;3.00;99.90
15072;DHT22;7635;56.696;13.002;2023-01-24T14:24:56;3.00;99.90
15072;DHT22;7635;56.696;13.002;2023-01-24T14:27:26;3.00;99.90
15072;DHT22;7635;56.696;13.002;2023-01-24T14:30:00;2.90;99.90
15072;DHT22;7635;56.696;13.002;2023-01-24T14:32:35;2.90;99.90
15072;DHT22;7635;56.696;13.002;2023-01-24T14:35:14;2.90;99.90
15072;DHT22;7635;56.696;13.002;2023-01-24T14:37:43;2.90;99.90
15072;DHT22;7635;56.696;13.002;2023-01-24T14:40:18;2.90;99.90
15072;DHT22;7635;56.696;13.002;2023-01-24T14:42:45;2.90;99.90
15072;DHT22;7635;56.696;13.002;2023-01-24T14:45:13;2.90;99.90
15072;DHT22;7635;56.696;13.002;2023-01-24T14:47:40;2.90;99.90
15072;DHT22;7635;56.696;13.002;2023-01-24T14:50:23;2.90;99.90
15072;DHT22;7635;56.696;13.002;2023-01-24T14:52:50;2.90;99.90
15072;DHT22;7635;56.696;13.002;2023-01-24T14:55:35;2.80;99.90
15072;DHT22;7635;56.696;13.002;2023-01-24T14:58:20;2.80;99.90
15072;DHT22;7635;56.696;13.002;2023-01-24T15:00:47;2.80;99.90
15072;DHT22;7635;56.696;13.002;2023-01-24T15:03:20;2.80;99.90
15072;DHT22;7635;56.696;13.002;2023-01-24T15:05:53;2.80;99.90
15072;DHT22;7635;56.696;13.002;2023-01-24T15:08:20;2.80;99.90
15072;DHT22;7635;56.696;13.002;2023-01-24T15:10:55;2.80;99.90
15072;DHT22;7635;56.696;13.002;2023-01-24T15:13:29;2.80;99.90
15072;DHT22;7635;56.696;13.002;2023-01-24T15:15:57;2.80;99.90
15072;DHT22;7635;56.696;13.002;2023-01-24T15:18:38;2.80;99.90
15072;DHT22;7635;56.696;13.002;2023-01-24T15:21:12;2.80;99.90
15072;DHT22;7635;56.696;13.002;2023-01-24T15:23:42;2.80;99.90
15072;DHT22;7635;56.696;13.002;2023-01-24T15:26:34;2.80;99.90
15072;DHT22;7635;56.696;13.002;2023-01-24T15:29:37;2.80;99.90
15072;DHT22;7635;56.696;13.002;2023-01-24T15:32:19;2.80;99.90
15072;DHT22;7635;56.696;13.002;2023-01-24T15:34:46;2.80;99.90
15072;DHT22;7635;56.696;13.002;2023-01-24T15:37:13;2.80;99.90
15072;DHT22;7635;56.696;13.002;2023-01-24T15:39:42;2.80;99.90
15072;DHT22;7635;56.696;13.002;2023-01-24T15:42:14;2.80;99.90
15072;DHT22;7635;56.696;13.002;2023-01-24T15:44:59;2.80;99.90
15072;DHT22;7635;56.696;13.002;2023-01-24T15:47:26;2.80;99.90
15072;DHT22;7635;56.696;13.002;2023-01-24T15:50:18;2.80;99.90
15072;DHT22;7635;56.696;13.002;2023-01-24T15:53:19;2.90;99.90
15072;DHT22;7635;56.696;13.002;2023-01-24T15:55:48;2.80;99.90
15072;DHT22;7635;56.696;13.002;2023-01-24T15:58:16;2.80;99.90
15072;DHT22;7635;56.696;13.002;2023-01-24T16:00:50;2.90;99.90
15072;DHT22;7635;56.696;13.002;2023-01-24T16:03:17;2.90;99.90
15072;DHT22;7635;56.696;13.002;2023-01-24T16:05:43;2.90;99.90
15072;DHT22;7635;56.696;13.002;2023-01-24T16:08:10;2.90;99.90
15072;DHT22;7635;56.696;13.002;2023-01-24T16:10:37;2.90;99.90
15072;DHT22;7635;56.696;13.002;2023-01-24T16:13:04;2.90;99.90
15072;DHT22;7635;56.696;13.002;2023-01-24T16:15:32;2.90;99.90
15072;DHT22;7635;56.696;13.002;2023-01-24T16:17:59;2.90;99.90
15072;DHT22;7635;56.696;13.002;2023-01-24T16:20:27;2.90;99.90
15072;DHT22;7635;56.696;13.002;2023-01-24T16:22:54;2.90;99.90
15072;DHT22;7635;56.696;13.002;2023-01-24T16:25:22;2.90;99.90